Canutillo, TX (79835)

1:25 AM MDT on July 29, 2015 (GMT -0600)
APRSWXNET | | Change Station
CLOSE
Current Station
Personal Weather Station
Location: Anthony, TX
Elevation: 3280 ft
Nearby Weather Stations

Elev 3280 ft 31.96 °N, 106.65 °W | Updated 24 minutes ago

Rain
Rain
69 °F
Feels Like 69 °F
N
6
Wind Variable Wind from SE
Gusts 10.0 mph

Today
High -- | Low -- °F
--% Chance of Precip.
Yesterday
High -- | Low -- °F
Precip. -- in
6:19 AM 8:05 PM
Waxing Gibbous, 94% visible
Pressure 29.95 in
Visibility 10.0 miles
Clouds Overcast 10000 ft
Dew Point 63 °F
Humidity 80%
Rainfall in
Snow Depth Not available.
UV 0 out of 12
Pollen 4.30 out of 12
Air Quality Not available.
Flu Activity Not available.
METAR KBIF 290658Z 33004KT 10SM -RA OVC100 22/18 A3015 RMK AO2A LTG DSNT SE SLP141 T02160178 403670216 P0006 $

More Conditions Fewer Conditions

Pressure 29.95 in
Visibility 10.0 miles
Clouds Overcast 10000 ft
Dew Point 63 °F
Humidity 80%
Rainfall in
Snow Depth Not available.
UV 0 out of 12
Pollen 4.30 out of 12
Air Quality Not available.
Flu Activity Not available.
METAR KBIF 290658Z 33004KT 10SM -RA OVC100 22/18 A3015 RMK AO2A LTG DSNT SE SLP141 T02160178 403670216 P0006 $

More Conditions Fewer Conditions

Nowcast | as of 1:10 am MDT on July 29, 2015

At 102 am MDT...scattered light to moderate rain showers were continuing to move across much of El Paso and Hudspeth counties. Over the next several hours these rain showers will continue to slowly track northwest. Most locations will receive only light to moderate rain with accumulations of a few hundredths to a few tenths of an inch. However...some isolated storm may contain heavier rain with rainfall accumulations of one- half to one inch of rain. This may cause minor flooding of arroyos and low- lying areas overnight.

×

10-Day Weather Forecast

×

Almanac

Astronomy

Jul. 29, 2015 Rise Set
Actual Time
Civil Twilight
Nautical Twilight
Astronomical Twilight
Moon
Length of Visible Light
Length of Day
Tomorrow will be .
, % of the Moon is Illuminated

Today's Extremes

State Highs State Lows

Community

WunderPhotos

Upload Photos

1,842,064 photos uploaded!

WunderBlogs® & News

Nearby

Air Quality

  Air Quality AQ Index Pollutant
Not available.

Snow Depth

Station Depth Elevation

Earthquake Activity

City Distance Mag. Time & Date
Minimum magnitude displayed is 2.5.

Coastal Water Temperatures

Place Temperature

Stations

Nearby Weather Stations

Station Location Temp. Windchill Dew Point Humidity Wind Precip. Elev Updated Type